YXGA weather

Gatton Showgrounds Helicopter Landing Site
Gatton, Queensland, Australia

Public forecast

Using degrees Celsius for public forecast. Weather courtesy of forecast.io.

Closest aviation weather report (METAR) to Gatton Showgrounds Helicopter Landing Site

Closest report is RAAF Base Amberley, 23.4 nm (43.3 km) ESE. Retrieved 2020/06/02 04:51 UTC (19 minutes ago):

YAMB 020451Z 27021KT CAVOK 20/M03 Q1016 FM0451 MOD TURB BLW 5000FT

Closest aviation forecast (TAF) to Gatton Showgrounds Helicopter Landing Site

Closest forecast is RAAF Base Amberley, 23.4 nm (43.3 km) ESE. Retrieved 2020-06-02 00:00 UTC (5 hours ago):

TAF COR YAMB 012346Z 0200/0218 28017G28KT CAVOK FM020900 29010KT CAVOK